-8.47C
пасмурно
пасмурно
Дата и времяТемператураДавление, мм рт.ст.Влажность, %Осадки
МинимумМаксимум
07.12.2022 08:00-9.61C-8.85C77280пасмурно
07.12.2022 11:00-10.36C-9.73C77182пасмурно
07.12.2022 14:00-7.87C-7.87C77184облачно с прояснениями
07.12.2022 17:00-7.42C-7.42C77083переменная облачность
07.12.2022 20:00-8.78C-8.78C77082небольшая облачность
07.12.2022 23:00-9.15C-9.15C76981ясно
08.12.2022 02:00-9.19C-9.19C76881ясно
08.12.2022 05:00-9.12C-9.12C76883переменная облачность
08.12.2022 08:00-8.41C-8.41C76792пасмурно
08.12.2022 11:00-7.75C-7.75C76693небольшой снег
08.12.2022 14:00-6.57C-6.57C76693небольшой снег
08.12.2022 17:00-5.67C-5.67C76693небольшой снег
08.12.2022 20:00-5.34C-5.34C76594небольшой снег
08.12.2022 23:00-4.66C-4.66C76594небольшой снег
09.12.2022 02:00-4.21C-4.21C76594небольшой снег
09.12.2022 05:00-4.18C-4.18C76595небольшой снег
09.12.2022 08:00-3.68C-3.68C76596пасмурно
09.12.2022 11:00-3.54C-3.54C76596пасмурно
09.12.2022 14:00-3.07C-3.07C76596небольшой снег
09.12.2022 17:00-2.27C-2.27C76497небольшой снег
09.12.2022 20:00-3.77C-3.77C76498пасмурно
09.12.2022 23:00-5.65C-5.65C76398небольшой снег
10.12.2022 02:00-3.22C-3.22C76298небольшой снег
10.12.2022 05:00-2.79C-2.79C76298небольшой снег
10.12.2022 08:00-3.34C-3.34C76199небольшой снег
10.12.2022 11:00-1.53C-1.53C75998небольшой снег
10.12.2022 14:000.21C0.21C75899снег
10.12.2022 17:000.96C0.96C75698дождь
10.12.2022 20:001.33C1.33C75599небольшой дождь
10.12.2022 23:001.16C1.16C75499небольшой дождь
11.12.2022 02:001.09C1.09C75699небольшой дождь
11.12.2022 05:00-1.97C-1.97C75996пасмурно
11.12.2022 08:00-4.2C-4.2C76292пасмурно
11.12.2022 11:00-7.53C-7.53C76496пасмурно
11.12.2022 14:00-5.18C-5.18C76592пасмурно
11.12.2022 17:00-4.42C-4.42C76794пасмурно
11.12.2022 20:00-4.62C-4.62C76793пасмурно
11.12.2022 23:00-4.33C-4.33C76791пасмурно
12.12.2022 02:00-3.87C-3.87C76596снег
12.12.2022 05:00-2.08C-2.08C76196снег
Дата и время наблюдения: 07.12.2022 05:08:39